Time;durP1;ratioP1;P1;durP2;ratioP2;P2;SDS_P1;SDS_P2;PMS_P1;PMS_P2;Temp;Humidity;BMP_temperature;BMP_pressure;BME280_temperature;BME280_humidity;BME280_pressure;Samples;Min_cycle;Max_cycle;Signal;HPM_P1;HPM_P2
2023/10/24 00:01:39;;;;;;;5.10;3.30;;;13.90;99.90;;;;;;5054921;23;20125;-95
2023/10/24 00:04:12;;;;;;;7.03;3.60;;;13.90;99.90;;;;;;5081601;23;20109;-94
2023/10/24 00:06:38;;;;;;;3.40;2.90;;;13.90;99.90;;;;;;5040508;28;20033;-93
2023/10/24 00:09:04;;;;;;;3.90;2.92;;;13.90;99.90;;;;;;5034424;28;20386;-93
2023/10/24 00:11:30;;;;;;;4.57;3.20;;;13.90;99.90;;;;;;5034440;28;20064;-93
2023/10/24 00:13:56;;;;;;;3.35;2.65;;;14.00;99.90;;;;;;5017219;28;20503;-93
2023/10/24 00:16:25;;;;;;;4.40;2.90;;;14.00;99.90;;;;;;5001672;28;20047;-95
2023/10/24 00:18:54;;;;;;;4.50;2.53;;;14.00;99.90;;;;;;5012164;28;20054;-93
2023/10/24 00:21:22;;;;;;;4.20;2.53;;;14.00;99.90;;;;;;5010124;28;20065;-94
2023/10/24 00:23:51;;;;;;;4.70;3.13;;;14.00;99.90;;;;;;5018218;28;20034;-94
2023/10/24 00:26:17;;;;;;;4.65;2.78;;;14.00;99.90;;;;;;5017652;28;20558;-93
2023/10/24 00:28:46;;;;;;;4.40;2.85;;;14.00;99.90;;;;;;5014601;28;20077;-93
2023/10/24 00:31:16;;;;;;;3.90;2.78;;;14.00;99.90;;;;;;5031418;28;20022;-95
2023/10/24 00:33:51;;;;;;;3.83;2.83;;;14.00;99.90;;;;;;5014671;28;20036;-95
2023/10/24 00:36:17;;;;;;;4.78;2.88;;;14.10;99.90;;;;;;5013921;28;20017;-92
2023/10/24 00:38:45;;;;;;;4.75;2.60;;;14.10;99.90;;;;;;5031263;28;20072;-93
2023/10/24 00:41:13;;;;;;;3.10;2.65;;;14.10;99.90;;;;;;5016004;28;20037;-94
2023/10/24 00:43:39;;;;;;;4.40;3.00;;;14.10;99.90;;;;;;5014152;28;20028;-94
2023/10/24 00:46:12;;;;;;;3.33;2.70;;;14.10;99.90;;;;;;5030304;28;20093;-93
2023/10/24 00:48:39;;;;;;;3.72;3.13;;;14.10;99.90;;;;;;5014131;28;20022;-94
2023/10/24 00:51:05;;;;;;;5.63;3.33;;;14.10;99.90;;;;;;4997983;28;20068;-93
2023/10/24 00:53:33;;;;;;;3.55;3.25;;;14.10;99.90;;;;;;4997909;28;20021;-93
2023/10/24 00:56:04;;;;;;;4.75;3.03;;;14.20;99.90;;;;;;5014190;28;20438;-94
2023/10/24 00:58:30;;;;;;;5.25;3.35;;;14.10;99.90;;;;;;5030744;28;20481;-92
2023/10/24 01:00:57;;;;;;;5.32;3.53;;;14.20;99.90;;;;;;4997989;28;20053;-93
2023/10/24 01:03:26;;;;;;;4.57;3.28;;;14.20;99.90;;;;;;5031323;28;20389;-93
2023/10/24 01:06:03;;;;;;;4.30;3.30;;;14.20;99.90;;;;;;5016059;28;20017;-93
2023/10/24 01:08:32;;;;;;;4.70;3.35;;;14.20;99.90;;;;;;5015101;28;20021;-93
2023/10/24 01:10:58;;;;;;;4.95;3.55;;;14.20;99.90;;;;;;5031050;28;20053;-92
2023/10/24 01:13:26;;;;;;;4.25;3.42;;;14.20;99.90;;;;;;5016331;28;20022;-93
2023/10/24 01:15:57;;;;;;;4.55;3.15;;;14.20;99.90;;;;;;5031771;28;20009;-92
2023/10/24 01:18:26;;;;;;;4.93;3.35;;;14.30;99.90;;;;;;5015522;28;20022;-92
2023/10/24 01:20:54;;;;;;;4.03;3.15;;;14.30;99.90;;;;;;5015174;28;20045;-94
2023/10/24 01:23:30;;;;;;;8.68;3.70;;;14.30;99.90;;;;;;4999662;28;20056;-94
2023/10/24 01:26:01;;;;;;;5.15;3.20;;;14.30;99.90;;;;;;5015130;28;20033;-93
2023/10/24 01:28:41;;;;;;;;;;;;;;;;;;;;;
2023/10/24 01:31:10;;;;;;;3.22;2.92;;;14.30;99.90;;;;;;5016037;28;20026;-94
2023/10/24 01:33:38;;;;;;;5.38;3.30;;;14.30;99.90;;;;;;4998651;28;20022;-95
2023/10/24 01:36:07;;;;;;;4.45;3.10;;;14.30;99.90;;;;;;5032796;28;20069;-93
2023/10/24 01:38:41;;;;;;;9.05;3.60;;;14.30;99.90;;;;;;5021176;28;20014;-90
2023/10/24 01:41:09;;;;;;;5.63;3.60;;;14.30;99.90;;;;;;5021398;28;20030;-92
2023/10/24 01:43:35;;;;;;;5.10;3.40;;;14.30;99.90;;;;;;5019238;28;20030;-91
2023/10/24 01:46:09;;;;;;;5.53;3.47;;;14.30;99.90;;;;;;5023425;28;20050;-93
2023/10/24 01:48:35;;;;;;;4.90;3.95;;;14.30;99.90;;;;;;5015289;28;20022;-93
2023/10/24 01:51:01;;;;;;;5.45;3.80;;;14.30;99.90;;;;;;4998558;28;20075;-93
2023/10/24 01:53:32;;;;;;;4.13;3.50;;;14.30;99.90;;;;;;4997858;28;20037;-93
2023/10/24 01:55:58;;;;;;;5.22;3.85;;;14.30;99.90;;;;;;5014811;28;20085;-93
2023/10/24 01:58:26;;;;;;;5.13;3.40;;;14.30;99.90;;;;;;5018253;28;20116;-93
2023/10/24 02:00:54;;;;;;;3.70;3.03;;;14.30;99.90;;;;;;5020148;28;20113;-92
2023/10/24 02:03:26;;;;;;;4.10;3.60;;;14.30;99.90;;;;;;5019737;28;20038;-93
2023/10/24 02:06:01;;;;;;;;;;;;;;;;;;;;;
2023/10/24 02:08:35;;;;;;;4.35;3.38;;;14.30;99.90;;;;;;5021610;28;20109;-93
2023/10/24 02:11:03;;;;;;;3.47;2.95;;;14.20;99.90;;;;;;5021080;28;20030;-94
2023/10/24 02:13:34;;;;;;;3.63;2.88;;;14.30;99.90;;;;;;5024302;28;20029;-92
2023/10/24 02:16:17;;;;;;;4.95;3.25;;;14.30;99.90;;;;;;5020692;28;20087;-91
2023/10/24 02:18:45;;;;;;;3.45;2.72;;;14.20;99.90;;;;;;5022955;28;20022;-93
2023/10/24 02:21:20;;;;;;;2.97;2.55;;;14.30;99.90;;;;;;5020169;28;20030;-93
2023/10/24 02:23:48;;;;;;;3.88;3.08;;;14.20;99.90;;;;;;5019415;28;20398;-93
2023/10/24 02:26:31;;;;;;;2.78;2.33;;;14.20;99.90;;;;;;5017782;28;20061;-94
2023/10/24 02:28:57;;;;;;;5.15;2.28;;;14.20;99.90;;;;;;5004058;28;20030;-94
2023/10/24 02:31:45;;;;;;;2.38;2.17;;;14.20;99.90;;;;;;5017908;28;20529;-94
2023/10/24 02:34:26;;;;;;;3.65;2.22;;;14.20;99.90;;;;;;5016891;28;20072;-93
2023/10/24 02:36:58;;;;;;;2.88;1.90;;;14.20;99.90;;;;;;5002272;28;20017;-94
2023/10/24 02:39:26;;;;;;;3.70;2.20;;;14.20;99.90;;;;;;5016677;28;20040;-94
2023/10/24 02:42:02;;;;;;;4.03;2.50;;;14.20;99.90;;;;;;5000383;28;20030;-94
2023/10/24 02:44:33;;;;;;;2.33;2.03;;;14.20;99.90;;;;;;5001051;28;20040;-94
2023/10/24 02:47:13;;;;;;;3.22;2.33;;;14.20;99.90;;;;;;5017674;28;20109;-92
2023/10/24 02:49:53;;;;;;;3.95;2.20;;;14.20;99.90;;;;;;5003287;28;20026;-92
2023/10/24 02:52:28;;;;;;;3.72;2.20;;;14.10;99.90;;;;;;5016769;28;20026;-92
2023/10/24 02:54:54;;;;;;;4.53;2.25;;;14.10;99.90;;;;;;5017314;28;20113;-93
2023/10/24 02:57:25;;;;;;;2.65;2.08;;;14.10;99.90;;;;;;5016594;28;20049;-92
2023/10/24 02:59:51;;;;;;;;;;;14.10;99.90;;;;;;5017542;28;20373;-94
2023/10/24 03:02:17;;;;;;;2.55;2.00;;;14.10;99.90;;;;;;5015993;28;19914;-93
2023/10/24 03:04:47;;;;;;;3.03;2.30;;;14.10;99.90;;;;;;5032500;28;20053;-94
2023/10/24 03:07:23;;;;;;;;;;;;;;;;;;;;;
2023/10/24 03:09:51;;;;;;;4.28;2.67;;;14.10;99.90;;;;;;5021401;28;20051;-92
2023/10/24 03:12:17;;;;;;;5.03;3.25;;;14.10;99.90;;;;;;5019217;28;20371;-92
2023/10/24 03:14:48;;;;;;;3.25;2.85;;;14.10;99.90;;;;;;5020744;28;20095;-93
2023/10/24 03:17:14;;;;;;;3.70;3.22;;;14.10;99.90;;;;;;5039561;28;20025;-92
2023/10/24 03:19:54;;;;;;;;;;;;;;;;;;;;;
2023/10/24 03:22:25;;;;;;;4.15;3.55;;;14.10;99.90;;;;;;5028605;28;20052;-91
2023/10/24 03:24:51;;;;;;;5.85;3.60;;;14.10;99.90;;;;;;5057867;28;20017;-93
2023/10/24 03:27:17;;;;;;;3.90;3.47;;;14.10;99.90;;;;;;5022546;28;20029;-92
2023/10/24 03:29:46;;;;;;;3.75;3.35;;;14.10;99.90;;;;;;5019375;28;20029;-92
2023/10/24 03:32:14;;;;;;;4.30;3.40;;;14.10;99.90;;;;;;5003278;28;20033;-92
2023/10/24 03:34:40;;;;;;;5.10;3.60;;;14.10;99.90;;;;;;5018972;28;20025;-92
2023/10/24 03:37:06;;;;;;;4.22;3.58;;;14.10;99.90;;;;;;5018637;28;20099;-92
2023/10/24 03:39:35;;;;;;;4.45;2.97;;;14.00;99.90;;;;;;5018786;28;20461;-95
2023/10/24 03:42:02;;;;;;;4.82;3.17;;;14.00;99.90;;;;;;5034638;28;20033;-93
2023/10/24 03:44:28;;;;;;;3.28;2.97;;;14.00;99.90;;;;;;5018523;28;20366;-93
2023/10/24 03:46:55;;;;;;;3.55;2.88;;;14.00;99.90;;;;;;5018421;28;20105;-94
2023/10/24 03:49:21;;;;;;;3.53;3.22;;;14.00;99.90;;;;;;5002235;28;20091;-93
2023/10/24 03:51:56;;;;;;;3.45;3.05;;;14.00;99.90;;;;;;5034727;28;20029;-95
2023/10/24 03:54:27;;;;;;;3.40;2.90;;;13.90;99.90;;;;;;5035223;28;20394;-93
2023/10/24 03:56:55;;;;;;;3.55;3.25;;;13.90;99.90;;;;;;5018051;28;20420;-93
2023/10/24 03:59:25;;;;;;;3.35;3.00;;;13.90;99.90;;;;;;5001966;28;20032;-92
2023/10/24 04:02:02;;;;;;;3.78;3.03;;;13.90;99.90;;;;;;5017971;28;20029;-91
2023/10/24 04:04:30;;;;;;;3.17;2.88;;;13.90;99.90;;;;;;5018553;28;20482;-93
2023/10/24 04:07:09;;;;;;;;;;;;;;;;;;;;;
2023/10/24 04:09:38;;;;;;;3.78;2.80;;;13.80;99.90;;;;;;5035489;28;20032;-93
2023/10/24 04:12:04;;;;;;;2.60;2.40;;;13.90;99.90;;;;;;5017807;28;20371;-92
2023/10/24 04:17:28;;;;;;;3.40;3.10;;;13.80;99.90;;;;;;5030272;28;20056;-92
2023/10/24 04:19:56;;;;;;;2.80;2.60;;;13.80;99.90;;;;;;5016741;28;20458;-91
2023/10/24 04:22:22;;;;;;;3.42;3.00;;;13.80;99.90;;;;;;5001724;28;20041;-92
2023/10/24 04:24:50;;;;;;;2.50;2.30;;;13.80;99.90;;;;;;5035502;28;20365;-92
2023/10/24 04:27:16;;;;;;;2.63;2.40;;;13.80;99.90;;;;;;5033998;28;20079;-93
2023/10/24 04:29:42;;;;;;;2.50;2.30;;;13.80;99.90;;;;;;5017246;28;20029;-92
2023/10/24 04:32:30;;;;;;;3.05;2.58;;;13.80;99.90;;;;;;5034280;28;20029;-94
2023/10/24 04:35:06;;;;;;;3.72;2.60;;;13.80;99.90;;;;;;5016965;28;20021;-94
2023/10/24 04:37:35;;;;;;;2.72;2.53;;;13.80;99.90;;;;;;5002552;28;20022;-91
2023/10/24 04:40:01;;;;;;;3.10;2.80;;;13.80;99.90;;;;;;5033214;28;20022;-93
2023/10/24 04:42:33;;;;;;;2.97;2.67;;;13.80;99.90;;;;;;5017090;28;20040;-94
2023/10/24 04:44:59;;;;;;;2.50;2.30;;;13.70;99.90;;;;;;5017765;28;20492;-93
2023/10/24 04:47:35;;;;;;;2.60;2.40;;;13.70;99.90;;;;;;5017587;28;20025;-92
2023/10/24 04:50:12;;;;;;;2.50;2.30;;;13.70;99.90;;;;;;5018002;28;20367;-93
2023/10/24 04:52:48;;;;;;;3.13;2.35;;;13.70;99.90;;;;;;5017525;28;20040;-92
2023/10/24 04:55:16;;;;;;;2.67;2.47;;;13.70;99.90;;;;;;5034799;28;20465;-93
2023/10/24 04:57:59;;;;;;;3.55;3.17;;;13.70;99.90;;;;;;5056704;28;20024;-92
2023/10/24 05:00:30;;;;;;;3.67;3.10;;;13.70;99.90;;;;;;5057376;28;20035;-90
2023/10/24 05:02:58;;;;;;;3.00;2.70;;;13.70;99.90;;;;;;5024500;28;20037;-92
2023/10/24 05:05:27;;;;;;;3.10;2.80;;;13.70;99.90;;;;;;5024535;28;20034;-91
2023/10/24 05:07:58;;;;;;;4.35;3.08;;;13.70;99.90;;;;;;5020933;28;20061;-93
2023/10/24 05:10:31;;;;;;;3.45;3.10;;;13.70;99.90;;;;;;5017826;28;20021;-92
2023/10/24 05:13:02;;;;;;;3.20;2.60;;;13.70;99.90;;;;;;5017746;28;20037;-92
2023/10/24 05:15:32;;;;;;;3.65;3.15;;;13.70;99.90;;;;;;5018011;28;20041;-92
2023/10/24 05:18:09;;;;;;;3.08;2.78;;;13.70;99.90;;;;;;5016988;28;20040;-94
2023/10/24 05:20:38;;;;;;;3.25;2.95;;;13.70;99.90;;;;;;5002705;28;20175;-93
2023/10/24 05:23:04;;;;;;;3.92;3.22;;;13.70;99.90;;;;;;5017094;28;20037;-92
2023/10/24 05:25:38;;;;;;;3.42;3.13;;;13.70;99.90;;;;;;5032879;28;20036;-90
2023/10/24 05:28:04;;;;;;;4.05;3.30;;;13.70;99.90;;;;;;5016533;28;20451;-92
2023/10/24 05:30:32;;;;;;;4.35;3.15;;;13.70;99.90;;;;;;5001109;28;20110;-91
2023/10/24 05:33:05;;;;;;;3.42;3.13;;;13.70;99.90;;;;;;5020584;28;20048;-92
2023/10/24 05:35:55;;;;;;;3.58;3.08;;;13.70;99.90;;;;;;5037822;28;20029;-91
2023/10/24 05:38:33;;;;;;;3.50;3.20;;;13.70;99.90;;;;;;5038204;28;20021;-92
2023/10/24 05:41:00;;;;;;;3.88;3.40;;;13.70;99.90;;;;;;5022367;28;20037;-92
2023/10/24 05:43:35;;;;;;;3.78;3.38;;;13.60;99.90;;;;;;5020246;28;20025;-89
2023/10/24 05:46:01;;;;;;;4.03;3.45;;;13.60;99.90;;;;;;5021036;28;20377;-93
2023/10/24 05:48:30;;;;;;;3.35;2.97;;;13.60;99.90;;;;;;5020489;28;20014;-92
2023/10/24 05:51:22;;;;;;;3.67;3.30;;;13.70;99.90;;;;;;5020949;28;20028;-92
2023/10/24 05:53:50;;;;;;;4.50;3.80;;;13.60;99.90;;;;;;5020357;28;20021;-92
2023/10/24 05:56:23;;;;;;;4.50;4.00;;;13.60;99.90;;;;;;5037962;28;20075;-92
2023/10/24 05:58:52;;;;;;;3.88;3.53;;;13.60;99.90;;;;;;5020446;28;20025;-90
2023/10/24 06:01:22;;;;;;;5.40;4.03;;;13.60;99.90;;;;;;5037774;28;20041;-92
2023/10/24 06:03:50;;;;;;;4.25;3.85;;;13.60;99.90;;;;;;5036872;28;20059;-92
2023/10/24 06:06:16;;;;;;;4.00;3.60;;;13.60;99.90;;;;;;5036868;28;20479;-92
2023/10/24 06:08:44;;;;;;;4.53;4.05;;;13.60;99.90;;;;;;5020715;28;20033;-91
2023/10/24 06:11:10;;;;;;;4.07;3.67;;;13.60;99.90;;;;;;5037648;28;20107;-93
2023/10/24 06:13:36;;;;;;;4.65;3.88;;;13.50;99.90;;;;;;5020161;28;20017;-93
2023/10/24 06:16:16;;;;;;;4.72;3.90;;;13.60;99.90;;;;;;5020124;28;20018;-93
2023/10/24 06:18:47;;;;;;;4.22;3.83;;;13.60;99.90;;;;;;5019958;28;20032;-93
2023/10/24 06:21:16;;;;;;;4.25;3.53;;;13.60;99.90;;;;;;5020233;28;20108;-93
2023/10/24 06:23:53;;;;;;;4.45;4.05;;;13.50;99.90;;;;;;5019703;28;20022;-93
2023/10/24 06:26:33;;;;;;;4.45;3.70;;;13.50;99.90;;;;;;5019999;28;20033;-92
2023/10/24 06:28:59;;;;;;;4.63;3.90;;;13.60;99.90;;;;;;5020802;28;20029;-91
2023/10/24 06:31:26;;;;;;;4.45;3.80;;;13.50;99.90;;;;;;5038306;28;20036;-91
2023/10/24 06:33:54;;;;;;;4.57;4.00;;;13.50;99.90;;;;;;5038892;28;20033;-93
2023/10/24 06:36:25;;;;;;;4.50;3.88;;;13.50;99.90;;;;;;5033609;28;20024;-93
2023/10/24 06:39:01;;;;;;;4.03;3.72;;;13.50;99.90;;;;;;5044432;28;20100;-93
2023/10/24 06:41:30;;;;;;;7.93;3.60;;;13.50;99.90;;;;;;5043147;28;20032;-91
2023/10/24 06:43:58;;;;;;;4.00;3.53;;;13.50;99.90;;;;;;5026766;28;20026;-93
2023/10/24 06:46:35;;;;;;;3.10;2.80;;;13.50;99.90;;;;;;5030718;28;20462;-93
2023/10/24 06:49:08;;;;;;;3.67;3.38;;;13.50;99.90;;;;;;5020684;28;20029;-92
2023/10/24 06:51:34;;;;;;;3.75;3.42;;;13.50;99.90;;;;;;5020446;28;20120;-93
2023/10/24 06:54:02;;;;;;;3.38;3.08;;;13.50;99.90;;;;;;5019970;28;20056;-95
2023/10/24 06:56:30;;;;;;;2.88;2.67;;;13.50;99.90;;;;;;5003717;28;20044;-94
2023/10/24 06:58:56;;;;;;;3.17;2.88;;;13.50;99.90;;;;;;5020010;28;20030;-92
2023/10/24 07:01:22;;;;;;;3.30;3.00;;;13.50;99.90;;;;;;5019309;28;20052;-92
2023/10/24 07:03:57;;;;;;;4.22;3.28;;;13.60;99.90;;;;;;5019580;28;20418;-92
2023/10/24 07:06:26;;;;;;;4.75;3.22;;;13.50;99.90;;;;;;5019685;28;20026;-94
2023/10/24 07:08:54;;;;;;;3.03;2.75;;;13.50;99.90;;;;;;5019586;28;20033;-94
2023/10/24 07:11:25;;;;;;;3.25;2.95;;;13.60;99.90;;;;;;5019463;28;20029;-93
2023/10/24 07:13:57;;;;;;;3.10;2.80;;;13.50;99.90;;;;;;5003163;28;20120;-95
2023/10/24 07:16:28;;;;;;;3.20;2.90;;;13.60;99.90;;;;;;4987519;28;20473;-92
2023/10/24 07:18:59;;;;;;;3.40;3.10;;;13.60;99.90;;;;;;5036018;28;20052;-92
2023/10/24 07:21:25;;;;;;;2.90;2.60;;;13.50;99.90;;;;;;5018886;28;20033;-94
2023/10/24 07:23:55;;;;;;;3.25;2.72;;;13.50;99.90;;;;;;5019128;28;20025;-95
2023/10/24 07:26:31;;;;;;;3.57;2.60;;;13.60;99.90;;;;;;5019331;28;20021;-92
2023/10/24 07:29:04;;;;;;;3.53;2.40;;;13.60;99.90;;;;;;5036618;28;20056;-94
2023/10/24 07:31:35;;;;;;;3.03;2.38;;;13.60;99.90;;;;;;5002362;28;20034;-93
2023/10/24 07:34:02;;;;;;;2.97;2.60;;;13.60;99.90;;;;;;5019200;28;20021;-93
2023/10/24 07:36:34;;;;;;;2.70;2.50;;;13.60;99.90;;;;;;5035029;28;20099;-91
2023/10/24 07:39:18;;;;;;;2.60;2.40;;;13.60;99.90;;;;;;5019858;28;20347;-93
2023/10/24 07:45:21;;;;;;;2.75;2.50;;;13.60;99.90;;;;;;5019220;28;20087;-92
2023/10/24 07:47:49;;;;;;;2.85;2.65;;;13.60;99.90;;;;;;5034781;28;20116;-93
2023/10/24 07:50:18;;;;;;;2.63;2.40;;;13.60;99.90;;;;;;5018428;28;20021;-91
2023/10/24 07:52:43;;;;;;;2.47;2.28;;;13.60;99.90;;;;;;5018459;28;20457;-93
2023/10/24 07:55:11;;;;;;;3.50;2.50;;;13.60;99.90;;;;;;5017367;28;20127;-91
2023/10/24 07:57:39;;;;;;;2.80;2.47;;;13.60;99.90;;;;;;5035859;28;20058;-91
2023/10/24 08:00:09;;;;;;;2.67;2.45;;;13.60;99.90;;;;;;5002335;28;20033;-91
2023/10/24 08:02:42;;;;;;;2.53;2.33;;;13.60;99.90;;;;;;5002479;28;20072;-92
2023/10/24 08:05:08;;;;;;;3.65;2.50;;;13.70;99.90;;;;;;5018011;28;20057;-90
2023/10/24 08:07:34;;;;;;;2.65;2.45;;;13.70;99.90;;;;;;5018682;28;20029;-93
2023/10/24 08:10:03;;;;;;;3.10;2.72;;;13.70;99.90;;;;;;5018494;28;20121;-91
2023/10/24 08:12:31;;;;;;;2.92;2.67;;;13.70;99.90;;;;;;5036458;28;20061;-90
2023/10/24 08:14:59;;;;;;;3.17;2.88;;;13.70;99.90;;;;;;5045544;28;20014;-91
2023/10/24 08:17:25;;;;;;;3.08;2.78;;;13.70;99.90;;;;;;5041816;28;20016;-91
2023/10/24 08:19:58;;;;;;;3.22;2.65;;;13.70;99.90;;;;;;5041540;28;20010;-91
2023/10/24 08:22:27;;;;;;;3.08;2.78;;;13.70;99.90;;;;;;5025535;28;20052;-89
2023/10/24 08:24:53;;;;;;;2.70;2.50;;;13.70;99.90;;;;;;5039845;28;20060;-92
2023/10/24 08:27:19;;;;;;;3.65;3.30;;;13.70;99.90;;;;;;5020745;28;20033;-91
2023/10/24 08:29:44;;;;;;;3.75;3.08;;;13.70;99.90;;;;;;5018313;28;20452;-91
2023/10/24 08:32:11;;;;;;;3.60;3.25;;;13.80;99.90;;;;;;5018346;28;20079;-92
2023/10/24 08:34:39;;;;;;;4.03;3.35;;;13.80;99.90;;;;;;5034871;28;20022;-91
2023/10/24 08:37:05;;;;;;;4.43;3.25;;;13.80;99.90;;;;;;5018185;28;20022;-91
2023/10/24 08:39:34;;;;;;;3.70;3.30;;;13.80;99.90;;;;;;5017871;28;20028;-92
2023/10/24 08:42:04;;;;;;;3.22;2.92;;;13.90;99.90;;;;;;5018615;28;20026;-92
2023/10/24 08:44:30;;;;;;;5.25;3.00;;;13.90;99.90;;;;;;5018019;28;20028;-92
2023/10/24 08:46:57;;;;;;;3.80;3.40;;;14.00;99.90;;;;;;5017484;28;20037;-92
2023/10/24 08:49:30;;;;;;;4.20;3.80;;;14.00;99.90;;;;;;5018657;28;20037;-92
2023/10/24 08:51:55;;;;;;;4.18;3.60;;;14.00;99.90;;;;;;5018577;28;20029;-91
2023/10/24 08:54:25;;;;;;;4.43;3.95;;;14.00;99.90;;;;;;5019279;28;20029;-90
2023/10/24 08:56:54;;;;;;;3.85;3.45;;;14.10;99.90;;;;;;5037346;28;20022;-91
2023/10/24 08:59:30;;;;;;;5.53;4.22;;;14.10;99.90;;;;;;5027475;28;20022;-92
2023/10/24 09:02:00;;;;;;;4.90;4.13;;;14.20;99.90;;;;;;5031722;28;20022;-92
2023/10/24 09:04:31;;;;;;;5.28;3.95;;;14.20;99.90;;;;;;5046330;28;20054;-91
2023/10/24 09:06:57;;;;;;;4.47;4.03;;;14.30;99.90;;;;;;5031015;28;20018;-92
2023/10/24 09:09:28;;;;;;;4.95;4.28;;;14.30;99.90;;;;;;5028654;28;20022;-93
2023/10/24 09:12:00;;;;;;;5.07;4.38;;;14.30;99.90;;;;;;5030278;28;20069;-92
2023/10/24 09:14:30;;;;;;;5.38;4.30;;;14.30;99.90;;;;;;5031815;28;20046;-88
2023/10/24 09:17:03;;;;;;;4.28;3.78;;;14.30;99.90;;;;;;5030298;28;20093;-91
2023/10/24 09:19:37;;;;;;;4.50;4.10;;;14.30;99.90;;;;;;5030973;28;20057;-90
2023/10/24 09:22:08;;;;;;;4.40;3.70;;;14.30;99.90;;;;;;5033434;28;20041;-92
2023/10/24 09:24:36;;;;;;;4.60;3.78;;;14.30;99.90;;;;;;5014751;28;20080;-92
2023/10/24 09:27:05;;;;;;;5.05;4.05;;;14.30;99.90;;;;;;5025177;28;20105;-91
2023/10/24 09:29:33;;;;;;;4.28;3.88;;;14.30;99.90;;;;;;5015566;28;20026;-92
2023/10/24 09:32:02;;;;;;;4.78;4.28;;;14.30;99.90;;;;;;4998619;28;20026;-92
2023/10/24 09:34:37;;;;;;;4.75;4.30;;;14.40;99.90;;;;;;5014315;28;20132;-91
2023/10/24 09:37:07;;;;;;;4.70;4.20;;;14.40;99.90;;;;;;5014077;28;20026;-93
2023/10/24 09:39:49;;;;;;;6.40;4.47;;;14.50;99.90;;;;;;5014115;28;20022;-92
2023/10/24 09:42:21;;;;;;;5.90;4.28;;;14.50;99.90;;;;;;5013899;28;20548;-92
2023/10/24 09:44:48;;;;;;;6.20;4.18;;;14.50;99.90;;;;;;5013698;28;20022;-93
2023/10/24 09:47:22;;;;;;;5.43;3.90;;;14.60;99.90;;;;;;5013439;28;20033;-93
2023/10/24 09:49:52;;;;;;;5.30;4.00;;;14.60;99.90;;;;;;5013677;28;20029;-93
2023/10/24 09:52:20;;;;;;;4.63;3.60;;;14.70;99.90;;;;;;5015173;28;20509;-92
2023/10/24 09:54:53;;;;;;;5.93;3.63;;;14.80;99.90;;;;;;5014395;28;20022;-93
2023/10/24 09:57:24;;;;;;;4.82;3.35;;;14.80;99.90;;;;;;5031301;28;20018;-92
2023/10/24 09:59:56;;;;;;;4.55;3.05;;;14.90;99.90;;;;;;5037617;28;20073;-92
2023/10/24 10:02:28;;;;;;;4.88;3.55;;;15.00;99.90;;;;;;5037373;28;20014;-89
2023/10/24 10:04:54;;;;;;;3.88;3.40;;;15.00;99.90;;;;;;5020316;28;20053;-91
2023/10/24 10:07:29;;;;;;;3.75;3.10;;;15.00;99.90;;;;;;5024395;28;20030;-92
2023/10/24 10:09:58;;;;;;;3.90;3.42;;;15.00;99.90;;;;;;5013885;28;20110;-92
2023/10/24 10:12:26;;;;;;;6.50;3.28;;;15.10;99.90;;;;;;5013945;28;20030;-93
2023/10/24 10:15:06;;;;;;;5.05;3.10;;;15.10;99.90;;;;;;5012906;28;20036;-92
2023/10/24 10:18:04;;;;;;;3.28;2.90;;;15.10;99.90;;;;;;5015346;28;20458;-92
2023/10/24 10:20:58;;;;;;;5.03;3.28;;;15.10;99.90;;;;;;5017263;28;20049;-93
2023/10/24 10:23:38;;;;;;;3.60;2.90;;;15.10;99.90;;;;;;5018446;28;20037;-93
2023/10/24 10:26:17;;;;;;;2.95;2.58;;;15.10;99.90;;;;;;5016622;28;20116;-93
2023/10/24 10:28:45;;;;;;;4.20;3.10;;;15.10;99.90;;;;;;5017582;28;20030;-94
2023/10/24 10:31:33;;;;;;;3.25;2.70;;;15.20;99.90;;;;;;5016920;28;20029;-92
2023/10/24 10:34:06;;;;;;;3.90;3.20;;;15.10;99.90;;;;;;5016589;28;20493;-92
2023/10/24 10:36:53;;;;;;;4.43;3.17;;;15.20;99.90;;;;;;5001081;28;20057;-92
2023/10/24 10:39:28;;;;;;;3.15;2.85;;;15.20;99.90;;;;;;5033611;28;20021;-93
2023/10/24 10:41:57;;;;;;;3.03;2.30;;;15.20;99.90;;;;;;5001167;28;20037;-93
2023/10/24 10:44:37;;;;;;;4.70;2.47;;;15.20;99.90;;;;;;5017267;28;20526;-92
2023/10/24 11:27:22;;;;;;;3.45;2.90;;;15.40;99.90;;;;;;5296661;24;20054;-91
2023/10/24 11:29:52;;;;;;;3.42;2.70;;;15.40;99.90;;;;;;4827504;29;20103;-92
2023/10/24 11:32:21;;;;;;;4.28;2.92;;;15.40;99.90;;;;;;4826827;29;20409;-91
2023/10/24 11:34:57;;;;;;;3.15;2.60;;;15.50;99.90;;;;;;4827775;29;20026;-91
2023/10/24 11:37:32;;;;;;;3.20;2.40;;;15.50;99.90;;;;;;4826966;29;20034;-91
2023/10/24 11:39:58;;;;;;;3.55;2.72;;;15.50;99.90;;;;;;4827130;29;20038;-91
2023/10/24 11:42:31;;;;;;;4.68;3.05;;;15.50;99.90;;;;;;4826471;29;20026;-92
2023/10/24 11:45:10;;;;;;;;;;;;;;;;;;;;;
2023/10/24 11:47:44;;;;;;;4.75;2.28;;;15.50;99.90;;;;;;4827861;29;20382;-91
2023/10/24 11:50:15;;;;;;;3.80;2.58;;;15.40;99.90;;;;;;4829300;29;20085;-93
2023/10/24 11:52:40;;;;;;;;;;;15.40;99.90;;;;;;4826728;29;20023;-91
2023/10/24 11:55:11;;;;;;;4.47;2.65;;;15.40;99.90;;;;;;4827487;29;19935;-90
2023/10/24 11:57:46;;;;;;;3.10;2.70;;;15.40;99.90;;;;;;4813016;29;20042;-91
2023/10/24 12:00:21;;;;;;;3.28;2.30;;;15.40;99.90;;;;;;4813225;29;20034;-91
2023/10/24 12:02:50;;;;;;;3.15;2.40;;;15.40;99.90;;;;;;4827534;29;20031;-92
2023/10/24 12:05:20;;;;;;;2.97;2.38;;;15.40;99.90;;;;;;4827613;29;20055;-93
2023/10/24 12:08:05;;;;;;;2.90;2.35;;;15.30;99.90;;;;;;4812083;29;20043;-93
2023/10/24 12:10:37;;;;;;;3.30;2.40;;;15.30;99.90;;;;;;4811719;29;20065;-93
2023/10/24 12:13:07;;;;;;;4.22;2.17;;;15.20;99.90;;;;;;4826573;29;20022;-92
2023/10/24 12:15:40;;;;;;;4.10;2.50;;;15.20;99.90;;;;;;4825915;29;20117;-91
2023/10/24 12:20:52;;;;;;;2.45;2.05;;;15.10;99.90;;;;;;4827303;29;20068;-91
2023/10/24 12:23:21;;;;;;;2.90;2.10;;;15.10;99.90;;;;;;4825639;29;20542;-92
2023/10/24 12:25:50;;;;;;;1.92;1.70;;;15.00;99.90;;;;;;4827435;29;20030;-91
2023/10/24 12:28:16;;;;;;;2.33;1.63;;;15.00;99.90;;;;;;4825984;29;20134;-91
2023/10/24 12:30:45;;;;;;;2.05;1.73;;;14.90;99.90;;;;;;4826289;29;20042;-93
2023/10/24 12:33:13;;;;;;;1.92;1.50;;;15.00;99.90;;;;;;4810843;29;20420;-91
2023/10/24 12:35:42;;;;;;;1.80;1.63;;;15.00;99.90;;;;;;4811494;29;20126;-95
2023/10/24 12:38:20;;;;;;;2.40;1.50;;;14.90;99.90;;;;;;4827272;29;20387;-92
2023/10/24 12:40:47;;;;;;;2.05;1.60;;;14.90;99.90;;;;;;4826752;29;20031;-95
2023/10/24 12:43:13;;;;;;;3.40;1.60;;;15.00;99.90;;;;;;4826319;29;20035;-93
2023/10/24 12:45:44;;;;;;;2.72;1.70;;;14.90;99.90;;;;;;4826468;29;20053;-93
2023/10/24 12:48:14;;;;;;;3.00;1.35;;;14.90;99.90;;;;;;4827656;29;20075;-94
2023/10/24 12:50:43;;;;;;;1.60;1.30;;;14.90;99.90;;;;;;4829045;29;20026;-93
2023/10/24 12:53:14;;;;;;;2.03;1.55;;;14.90;99.90;;;;;;4827108;29;20034;-92
2023/10/24 12:55:45;;;;;;;3.75;1.80;;;14.80;99.90;;;;;;4828356;29;20035;-93
2023/10/24 12:58:14;;;;;;;3.28;1.75;;;14.80;99.90;;;;;;4841084;29;20021;-94
2023/10/24 13:00:45;;;;;;;2.13;1.83;;;14.80;99.90;;;;;;4830331;29;20031;-94
2023/10/24 13:03:31;;;;;;;;;;;;;;;;;;;;;
2023/10/24 13:06:04;;;;;;;2.45;1.70;;;14.80;99.90;;;;;;4826648;29;20086;-91
2023/10/24 13:08:30;;;;;;;3.05;1.90;;;14.80;99.90;;;;;;4851841;29;20034;-93
2023/10/24 13:10:56;;;;;;;1.90;1.60;;;14.80;99.90;;;;;;4845808;29;20094;-92
2023/10/24 13:13:26;;;;;;;2.80;1.83;;;14.80;99.90;;;;;;4843610;29;20034;-93
2023/10/24 13:16:17;;;;;;;2.63;1.70;;;14.80;99.90;;;;;;4815895;29;20034;-93
2023/10/24 13:18:43;;;;;;;3.22;2.10;;;14.70;99.90;;;;;;4809191;29;20034;-93
2023/10/24 13:21:19;;;;;;;1.77;1.67;;;14.70;99.90;;;;;;4826019;29;20026;-94
2023/10/24 13:23:45;;;;;;;2.90;1.90;;;14.70;99.90;;;;;;4841560;29;20057;-92
2023/10/24 13:26:20;;;;;;;2.30;1.88;;;14.70;99.90;;;;;;4846618;29;20026;-93
2023/10/24 13:28:46;;;;;;;3.28;1.83;;;14.80;99.90;;;;;;4815139;29;20050;-93
2023/10/24 13:31:17;;;;;;;2.10;1.83;;;14.70;99.90;;;;;;4825221;29;20030;-93
2023/10/24 13:33:44;;;;;;;;;;;14.80;99.90;;;;;;4793001;29;20031;-94
2023/10/24 13:36:31;;;;;;;;;;;;;;;;;;;;;
2023/10/24 13:39:01;;;;;;;3.67;2.13;;;14.70;99.90;;;;;;4843962;29;20040;-95
2023/10/24 13:41:31;;;;;;;2.40;1.85;;;14.70;99.90;;;;;;4832217;29;20046;-94
2023/10/24 13:44:00;;;;;;;2.95;2.17;;;14.80;99.90;;;;;;4825307;29;20026;-93
2023/10/24 13:46:36;;;;;;;2.03;1.80;;;14.70;99.90;;;;;;4828585;29;20481;-92
2023/10/24 13:49:02;;;;;;;1.85;1.70;;;14.80;99.90;;;;;;4825205;29;20497;-93
2023/10/24 13:51:33;;;;;;;2.08;1.50;;;14.80;99.90;;;;;;4825347;29;20065;-95
2023/10/24 13:54:03;;;;;;;;;;;14.80;99.90;;;;;;4828520;29;20031;-92
2023/10/24 13:56:33;;;;;;;1.77;1.40;;;14.90;99.90;;;;;;4810791;29;20449;-94
2023/10/24 13:58:59;;;;;;;2.13;1.65;;;14.90;99.90;;;;;;4829636;29;20030;-93
2023/10/24 14:01:28;;;;;;;2.03;1.60;;;15.00;99.90;;;;;;4846128;29;20063;-93
2023/10/24 14:04:01;;;;;;;1.58;1.20;;;15.00;99.90;;;;;;4833755;29;20053;-95
2023/10/24 14:06:29;;;;;;;1.80;1.48;;;15.10;99.90;;;;;;4815954;29;20047;-95